createdAt,value
2018-12-09T00:02:25.810Z,10.38
2018-12-09T00:04:55.075Z,10.41
2018-12-09T00:07:23.936Z,10.37
2018-12-09T00:09:52.794Z,10.45
2018-12-09T00:12:21.657Z,10.50
2018-12-09T00:14:50.511Z,10.75
2018-12-09T00:17:19.784Z,10.83
2018-12-09T00:19:48.627Z,11.08
2018-12-09T00:22:17.489Z,10.67
2018-12-09T00:24:46.372Z,10.93
2018-12-09T00:27:15.532Z,10.45
2018-12-09T00:29:44.388Z,10.77
2018-12-09T00:32:13.253Z,10.75
2018-12-09T00:34:42.374Z,10.62
2018-12-09T00:37:11.298Z,10.63
2018-12-09T00:39:40.166Z,10.98
2018-12-09T00:42:09.306Z,10.67
2018-12-09T00:44:38.203Z,10.94
2018-12-09T00:47:07.275Z,10.80
2018-12-09T00:49:36.140Z,10.77
2018-12-09T00:52:05.039Z,10.77
2018-12-09T00:54:33.876Z,11.00
2018-12-09T00:57:03.006Z,10.98
2018-12-09T00:59:31.863Z,10.82
2018-12-09T01:02:04.888Z,10.87
2018-12-09T01:04:33.747Z,11.03
2018-12-09T01:07:03.323Z,10.58
2018-12-09T01:09:32.210Z,10.51
2018-12-09T01:12:01.610Z,11.07
2018-12-09T01:14:30.952Z,10.84
2018-12-09T01:16:59.853Z,10.99
2018-12-09T01:19:29.079Z,10.29
2018-12-09T01:21:57.964Z,10.81
2018-12-09T01:24:27.264Z,10.44
2018-12-09T01:26:56.791Z,10.62
2018-12-09T01:29:25.936Z,10.60
2018-12-09T01:31:54.794Z,10.76
2018-12-09T01:34:23.948Z,10.52
2018-12-09T01:36:53.395Z,10.08
2018-12-09T01:39:22.549Z,10.57
2018-12-09T01:41:51.420Z,10.75
2018-12-09T01:44:20.694Z,10.48
2018-12-09T01:46:50.251Z,10.93
2018-12-09T01:49:19.361Z,10.51
2018-12-09T01:51:48.244Z,10.30
2018-12-09T01:54:18.789Z,10.29
2018-12-09T01:56:48.328Z,10.50
2018-12-09T01:59:17.468Z,10.02
2018-12-09T02:01:46.574Z,10.10
2018-12-09T02:04:16.491Z,10.15
2018-12-09T02:06:46.107Z,10.42
2018-12-09T02:09:15.387Z,10.33
2018-12-09T02:11:44.494Z,10.37
2018-12-09T02:14:13.602Z,10.40
2018-12-09T02:16:43.089Z,10.53
2018-12-09T02:19:19.673Z,10.52
2018-12-09T02:21:49.368Z,10.44
2018-12-09T02:24:18.803Z,10.60
2018-12-09T02:26:48.286Z,10.85
2018-12-09T02:29:17.173Z,10.31
2018-12-09T02:31:46.472Z,9.83
2018-12-09T02:34:15.584Z,10.41
2018-12-09T02:36:45.169Z,10.86
2018-12-09T02:39:14.684Z,10.66
2018-12-09T02:41:43.984Z,11.14
2018-12-09T02:44:13.525Z,10.99
2018-12-09T02:46:43.313Z,10.98
2018-12-09T02:49:12.199Z,10.79
2018-12-09T02:51:41.721Z,10.42
2018-12-09T02:54:10.790Z,10.93
2018-12-09T02:56:40.094Z,10.30
2018-12-09T02:59:09.323Z,10.96
2018-12-09T03:01:38.795Z,10.84
2018-12-09T03:04:07.894Z,11.09
2018-12-09T03:06:37.084Z,10.41
2018-12-09T03:09:07.112Z,10.96
2018-12-09T03:11:36.201Z,10.43
2018-12-09T03:14:05.481Z,10.64
2018-12-09T03:16:34.607Z,10.15
2018-12-09T03:19:03.520Z,10.52
2018-12-09T03:21:32.617Z,10.73
2018-12-09T03:24:01.679Z,10.56
2018-12-09T03:26:31.091Z,10.63
2018-12-09T03:29:00.287Z,10.48
2018-12-09T03:31:29.529Z,10.15
2018-12-09T03:33:58.676Z,10.56
2018-12-09T03:36:27.714Z,10.40
2018-12-09T03:38:56.796Z,10.48
2018-12-09T03:41:25.689Z,10.69
2018-12-09T03:43:54.773Z,10.25
2018-12-09T03:46:23.893Z,10.32
2018-12-09T03:48:52.974Z,10.47
2018-12-09T03:51:22.552Z,10.97
2018-12-09T03:53:51.692Z,10.93
2018-12-09T03:56:20.774Z,10.86
2018-12-09T03:58:49.883Z,10.52
2018-12-09T04:01:18.997Z,10.81
2018-12-09T04:03:48.544Z,10.39
2018-12-09T04:06:17.661Z,10.46
2018-12-09T04:08:46.477Z,9.94
2018-12-09T04:11:15.978Z,10.33
2018-12-09T04:13:45.067Z,10.68
2018-12-09T04:16:13.950Z,10.46
2018-12-09T04:18:42.816Z,10.83
2018-12-09T04:21:11.640Z,10.58
2018-12-09T04:23:40.756Z,10.73
2018-12-09T04:26:09.594Z,10.08
2018-12-09T04:28:38.667Z,9.96
2018-12-09T04:31:07.506Z,9.64
2018-12-09T04:33:36.334Z,9.53
2018-12-09T04:36:05.643Z,9.69
2018-12-09T04:38:34.456Z,9.73
2018-12-09T04:41:03.565Z,9.95
2018-12-09T04:43:32.424Z,9.76
2018-12-09T04:46:01.274Z,9.82
2018-12-09T04:48:30.649Z,10.44
2018-12-09T04:50:59.733Z,10.02
2018-12-09T04:53:28.555Z,9.73
2018-12-09T04:55:57.627Z,10.16
2018-12-09T04:58:26.917Z,10.02
2018-12-09T05:00:57.075Z,9.84
2018-12-09T05:03:26.239Z,10.32
2018-12-09T05:05:55.139Z,9.41
2018-12-09T05:08:24.439Z,10.21
2018-12-09T05:10:53.318Z,10.24
2018-12-09T05:13:22.210Z,10.23
2018-12-09T05:15:51.088Z,10.26
2018-12-09T05:18:20.095Z,10.31
2018-12-09T05:20:49.498Z,10.35
2018-12-09T05:23:18.689Z,10.23
2018-12-09T05:25:47.790Z,10.54
2018-12-09T05:28:16.886Z,10.55
2018-12-09T05:30:45.994Z,10.48
2018-12-09T05:33:14.870Z,10.85
2018-12-09T05:35:44.390Z,10.51
2018-12-09T05:38:13.284Z,10.07
2018-12-09T05:40:42.912Z,9.96
2018-12-09T05:43:12.191Z,10.38
2018-12-09T05:45:41.069Z,10.86
2018-12-09T05:48:10.173Z,10.85
2018-12-09T05:50:39.198Z,10.94
2018-12-09T05:53:08.061Z,11.01
2018-12-09T05:55:37.168Z,11.02
2018-12-09T05:58:06.252Z,11.11
2018-12-09T06:00:35.360Z,11.08
2018-12-09T06:03:04.193Z,10.72
2018-12-09T06:05:33.303Z,10.78
2018-12-09T06:08:02.212Z,10.34
2018-12-09T06:10:31.121Z,10.52
2018-12-09T06:12:59.979Z,10.27
2018-12-09T06:15:28.819Z,10.39
2018-12-09T06:17:58.198Z,10.61
2018-12-09T06:20:27.082Z,10.73
2018-12-09T06:22:55.979Z,10.83
2018-12-09T06:25:25.090Z,10.34
2018-12-09T06:27:54.185Z,10.39
2018-12-09T06:30:23.098Z,10.62
2018-12-09T06:32:52.202Z,10.45
2018-12-09T06:35:21.676Z,10.37
2018-12-09T06:37:51.040Z,10.56
2018-12-09T06:40:20.439Z,10.83
2018-12-09T06:42:49.701Z,9.91
2018-12-09T06:45:18.814Z,10.44
2018-12-09T06:47:48.035Z,10.14
2018-12-09T06:50:17.270Z,10.72
2018-12-09T06:52:46.154Z,10.13
2018-12-09T06:55:15.659Z,10.75
2018-12-09T06:57:44.540Z,10.89
2018-12-09T07:00:14.482Z,10.60
2018-12-09T07:02:43.375Z,10.08
2018-12-09T07:05:12.226Z,10.47
2018-12-09T07:07:41.319Z,10.82
2018-12-09T07:10:10.671Z,10.92
2018-12-09T07:12:40.088Z,10.77
2018-12-09T07:15:10.062Z,10.83
2018-12-09T07:17:39.946Z,10.79
2018-12-09T07:20:09.783Z,10.55
2018-12-09T07:22:38.891Z,10.56
2018-12-09T07:25:08.511Z,10.49
2018-12-09T07:27:37.800Z,10.37
2018-12-09T07:30:08.725Z,10.23
2018-12-09T07:32:37.831Z,10.51
2018-12-09T07:35:07.964Z,10.14
2018-12-09T07:37:36.855Z,10.65
2018-12-09T07:40:08.395Z,10.76
2018-12-09T07:42:37.503Z,10.35
2018-12-09T07:45:07.037Z,10.61
2018-12-09T07:47:36.494Z,10.50
2018-12-09T07:50:06.513Z,10.73
2018-12-09T07:52:35.405Z,9.56
2018-12-09T07:55:04.661Z,9.64
2018-12-09T07:57:33.503Z,9.63
2018-12-09T08:00:02.799Z,9.38
2018-12-09T08:02:31.666Z,10.07
2018-12-09T08:05:00.536Z,9.71
2018-12-09T08:07:29.595Z,9.99
2018-12-09T08:09:58.771Z,9.85
2018-12-09T08:12:27.659Z,10.36
2018-12-09T08:14:56.708Z,10.30
2018-12-09T08:17:25.523Z,9.68
2018-12-09T08:19:54.350Z,10.41
2018-12-09T08:22:23.220Z,10.77
2018-12-09T08:24:52.439Z,10.57
2018-12-09T08:27:21.367Z,10.81
2018-12-09T08:29:50.222Z,10.17
2018-12-09T08:32:19.085Z,10.01
2018-12-09T08:34:47.933Z,10.35
2018-12-09T08:37:16.777Z,10.53
2018-12-09T08:39:45.642Z,10.18
2018-12-09T08:42:14.489Z,10.22
2018-12-09T08:44:43.348Z,10.06
2018-12-09T08:47:12.224Z,10.17
2018-12-09T08:49:41.066Z,9.49
2018-12-09T08:52:09.888Z,9.40
2018-12-09T08:54:38.742Z,9.49
2018-12-09T08:57:07.600Z,9.72
2018-12-09T08:59:36.507Z,9.64
2018-12-09T09:02:05.752Z,9.46
2018-12-09T09:04:34.563Z,10.22
2018-12-09T09:07:03.486Z,10.47
2018-12-09T09:09:32.359Z,9.73
2018-12-09T09:12:01.178Z,10.06
2018-12-09T09:14:30.051Z,10.29
2018-12-09T09:16:59.149Z,10.68
2018-12-09T09:19:28.098Z,10.29
2018-12-09T09:21:56.918Z,10.41
2018-12-09T09:24:25.811Z,10.48
2018-12-09T09:26:54.694Z,10.56
2018-12-09T09:29:23.508Z,10.33
2018-12-09T09:31:52.874Z,10.08
2018-12-09T09:34:21.703Z,10.69
2018-12-09T09:36:50.680Z,10.25
2018-12-09T09:39:19.549Z,10.67
2018-12-09T09:41:48.385Z,10.69
2018-12-09T09:44:17.243Z,10.77
2018-12-09T09:46:46.102Z,10.69
2018-12-09T09:49:14.943Z,10.78
2018-12-09T09:51:43.809Z,10.93
2018-12-09T09:54:12.643Z,10.91
2018-12-09T09:56:42.350Z,10.94
2018-12-09T09:59:11.224Z,11.02
2018-12-09T10:01:40.070Z,10.99
2018-12-09T10:04:08.887Z,10.99
2018-12-09T10:06:37.727Z,11.01
2018-12-09T10:09:07.497Z,10.77
2018-12-09T10:11:36.319Z,10.76
2018-12-09T10:14:05.167Z,10.94
2018-12-09T10:16:34.026Z,11.04
2018-12-09T10:19:02.962Z,11.01
2018-12-09T10:21:32.046Z,11.10
2018-12-09T10:24:00.924Z,11.06
2018-12-09T10:26:36.473Z,10.42
2018-12-09T10:29:00.951Z,10.29
2018-12-09T10:31:29.836Z,10.49
2018-12-09T10:33:58.990Z,10.49
2018-12-09T10:36:27.842Z,10.52
2018-12-09T10:38:56.654Z,10.59
2018-12-09T10:41:25.666Z,10.63
2018-12-09T10:43:54.523Z,10.33
2018-12-09T10:46:23.807Z,10.72
2018-12-09T10:48:52.737Z,10.61
2018-12-09T10:51:21.855Z,10.28
2018-12-09T10:53:50.721Z,10.70
2018-12-09T10:56:20.010Z,10.61
2018-12-09T10:58:48.900Z,10.67
2018-12-09T11:01:23.123Z,10.46
2018-12-09T11:03:52.926Z,10.24
2018-12-09T11:06:22.325Z,9.88
2018-12-09T11:08:51.188Z,10.29
2018-12-09T11:11:20.222Z,10.12
2018-12-09T11:13:49.083Z,9.99
2018-12-09T11:16:18.271Z,9.67
2018-12-09T11:18:47.123Z,10.11
2018-12-09T11:21:15.978Z,10.14
2018-12-09T11:23:44.877Z,10.24
2018-12-09T11:26:14.088Z,10.02
2018-12-09T11:28:42.971Z,10.07
2018-12-09T11:31:11.859Z,10.10
2018-12-09T11:33:40.958Z,10.20
2018-12-09T11:36:09.849Z,10.47
2018-12-09T11:38:38.735Z,10.60
2018-12-09T11:41:07.587Z,9.77
2018-12-09T11:43:36.892Z,10.57
2018-12-09T11:46:05.753Z,10.83
2018-12-09T11:48:34.607Z,9.89
2018-12-09T11:51:03.462Z,10.15
2018-12-09T11:53:32.819Z,10.39
2018-12-09T11:56:01.656Z,9.64
2018-12-09T11:58:30.506Z,9.54
2018-12-09T12:00:59.372Z,9.85
2018-12-09T12:03:28.636Z,9.88
2018-12-09T12:05:57.515Z,10.04
2018-12-09T12:08:26.358Z,10.14
2018-12-09T12:10:55.240Z,10.61
2018-12-09T12:13:24.099Z,10.58
2018-12-09T12:15:53.032Z,10.47
2018-12-09T12:18:21.937Z,10.28
2018-12-09T12:20:50.808Z,10.65
2018-12-09T12:23:19.698Z,10.67
2018-12-09T12:25:48.566Z,10.72
2018-12-09T12:28:17.461Z,10.86
2018-12-09T12:30:46.470Z,10.99
2018-12-09T12:33:15.387Z,10.92
2018-12-09T12:35:44.355Z,10.76
2018-12-09T12:38:13.266Z,10.27
2018-12-09T12:40:42.126Z,10.39
2018-12-09T12:43:11.027Z,10.52
2018-12-09T12:45:40.303Z,9.82
2018-12-09T12:48:09.535Z,9.63
2018-12-09T12:50:38.417Z,10.02
2018-12-09T12:53:07.718Z,9.80
2018-12-09T12:55:36.940Z,9.90
2018-12-09T12:58:05.806Z,9.98
2018-12-09T13:00:35.220Z,10.53
2018-12-09T13:03:06.182Z,10.66
2018-12-09T13:05:35.395Z,10.35
2018-12-09T13:08:04.648Z,10.54
2018-12-09T13:10:33.540Z,10.47
2018-12-09T13:13:02.852Z,10.58
2018-12-09T13:15:31.853Z,10.69
2018-12-09T13:18:00.937Z,10.63
2018-12-09T13:20:29.849Z,10.31
2018-12-09T13:22:58.739Z,9.48
2018-12-09T13:25:27.612Z,9.68
2018-12-09T13:27:56.706Z,10.18
2018-12-09T13:30:25.597Z,10.30
2018-12-09T13:32:54.455Z,9.82
2018-12-09T13:35:23.309Z,10.04
2018-12-09T13:37:52.168Z,9.78
2018-12-09T13:40:21.055Z,10.36
2018-12-09T13:42:49.958Z,9.80
2018-12-09T13:45:19.042Z,10.55
2018-12-09T13:47:48.350Z,10.33
2018-12-09T13:50:17.657Z,10.45
2018-12-09T13:52:46.596Z,10.46
2018-12-09T13:55:15.943Z,10.48
2018-12-09T13:57:44.838Z,10.56
2018-12-09T14:00:18.293Z,10.52
2018-12-09T14:02:47.763Z,10.23
2018-12-09T14:05:16.889Z,10.06
2018-12-09T14:07:45.824Z,10.35
2018-12-09T14:10:14.716Z,10.53
2018-12-09T14:12:43.566Z,10.68
2018-12-09T14:15:12.898Z,10.80
2018-12-09T14:17:42.200Z,10.52
2018-12-09T14:20:12.018Z,9.91
2018-12-09T14:22:40.914Z,10.31
2018-12-09T14:25:10.415Z,9.70
2018-12-09T14:27:39.311Z,10.17
2018-12-09T14:30:08.298Z,10.11
2018-12-09T14:32:37.184Z,10.09
2018-12-09T14:35:07.762Z,9.94
2018-12-09T14:37:36.873Z,10.19
2018-12-09T14:40:08.878Z,10.47
2018-12-09T14:42:38.132Z,10.39
2018-12-09T14:45:09.731Z,10.27
2018-12-09T14:47:38.884Z,10.65
2018-12-09T14:50:08.919Z,10.80
2018-12-09T14:52:38.155Z,10.44
2018-12-09T14:55:07.542Z,10.61
2018-12-09T14:57:36.492Z,10.81
2018-12-09T15:00:07.783Z,10.74
2018-12-09T15:02:37.299Z,10.54
2018-12-09T15:05:06.827Z,10.43
2018-12-09T15:07:35.782Z,10.56
2018-12-09T15:10:08.963Z,10.62
2018-12-09T15:12:36.693Z,10.79
2018-12-09T15:15:06.448Z,10.57
2018-12-09T15:17:35.320Z,10.31
2018-12-09T15:20:07.559Z,10.28
2018-12-09T15:22:36.410Z,10.55
2018-12-09T15:25:07.144Z,9.53
2018-12-09T15:27:36.351Z,9.97
2018-12-09T15:30:06.268Z,9.96
2018-12-09T15:32:35.111Z,9.80
2018-12-09T15:35:05.038Z,9.59
2018-12-09T15:37:33.863Z,10.11
2018-12-09T15:40:02.750Z,9.31
2018-12-09T15:42:31.842Z,9.16
2018-12-09T15:45:00.725Z,9.54
2018-12-09T15:47:29.651Z,9.42
2018-12-09T15:49:58.509Z,9.37
2018-12-09T15:52:27.393Z,9.19
2018-12-09T15:54:56.223Z,8.84
2018-12-09T15:57:25.508Z,9.22
2018-12-09T15:59:54.729Z,8.81
2018-12-09T16:02:23.691Z,9.16
2018-12-09T16:04:52.540Z,8.69
2018-12-09T16:07:21.687Z,8.40
2018-12-09T16:09:50.581Z,8.91
2018-12-09T16:12:19.407Z,9.32
2018-12-09T16:14:48.246Z,9.66
2018-12-09T16:17:17.096Z,9.26
2018-12-09T16:19:45.929Z,9.79
2018-12-09T16:22:14.844Z,10.12
2018-12-09T16:24:43.781Z,9.92
2018-12-09T16:27:12.617Z,10.15
2018-12-09T16:29:41.487Z,10.43
2018-12-09T16:32:10.410Z,10.15
2018-12-09T16:34:39.267Z,10.04
2018-12-09T16:37:08.163Z,10.11
2018-12-09T16:39:37.023Z,10.10
2018-12-09T16:42:05.865Z,9.90
2018-12-09T16:44:34.696Z,9.97
2018-12-09T16:47:03.619Z,10.00
2018-12-09T16:49:32.439Z,9.90
2018-12-09T16:52:01.706Z,10.12
2018-12-09T16:54:30.602Z,10.15
2018-12-09T16:56:59.716Z,9.92
2018-12-09T16:59:28.584Z,9.79
2018-12-09T17:01:57.495Z,9.87
2018-12-09T17:04:26.370Z,9.35
2018-12-09T17:06:55.250Z,9.71
2018-12-09T17:09:24.115Z,9.63
2018-12-09T17:11:52.957Z,9.61
2018-12-09T17:14:21.801Z,9.70
2018-12-09T17:16:50.653Z,9.82
2018-12-09T17:19:19.502Z,9.46
2018-12-09T17:21:48.402Z,9.48
2018-12-09T17:24:17.293Z,9.37
2018-12-09T17:26:46.629Z,9.76
2018-12-09T17:29:15.486Z,9.75
2018-12-09T17:31:44.580Z,9.77
2018-12-09T17:34:13.463Z,9.49
2018-12-09T17:36:42.438Z,9.52
2018-12-09T17:39:11.264Z,9.42
2018-12-09T17:41:40.120Z,9.40
2018-12-09T17:44:08.950Z,9.80
2018-12-09T17:46:37.828Z,9.63
2018-12-09T17:49:06.690Z,9.69
2018-12-09T17:51:35.511Z,9.63
2018-12-09T17:54:04.409Z,9.64
2018-12-09T17:56:33.286Z,9.43
2018-12-09T17:59:02.384Z,9.19
2018-12-09T18:01:31.719Z,9.67
2018-12-09T18:04:00.684Z,9.89
2018-12-09T18:06:30.185Z,9.38
2018-12-09T18:08:59.123Z,9.34
2018-12-09T18:11:28.269Z,9.12
2018-12-09T18:13:57.171Z,9.68
2018-12-09T18:16:26.056Z,9.51
2018-12-09T18:18:54.942Z,9.74
2018-12-09T18:21:23.829Z,9.41
2018-12-09T18:23:53.064Z,9.75
2018-12-09T18:26:22.494Z,9.71
2018-12-09T18:28:51.328Z,9.25
2018-12-09T18:31:20.928Z,9.85
2018-12-09T18:33:50.214Z,9.98
2018-12-09T18:36:19.639Z,10.07
2018-12-09T18:38:48.941Z,10.27
2018-12-09T18:41:17.782Z,10.02
2018-12-09T18:43:46.645Z,10.20
2018-12-09T18:46:15.583Z,10.36
2018-12-09T18:48:44.403Z,10.43
2018-12-09T18:51:13.921Z,10.23
2018-12-09T18:53:43.176Z,10.05
2018-12-09T18:56:12.480Z,9.98
2018-12-09T18:58:41.497Z,10.07
2018-12-09T19:01:10.414Z,10.15
2018-12-09T19:03:39.287Z,10.42
2018-12-09T19:06:08.311Z,10.37
2018-12-09T19:08:37.792Z,10.41
2018-12-09T19:11:06.682Z,10.52
2018-12-09T19:13:35.542Z,10.26
2018-12-09T19:16:04.873Z,10.50
2018-12-09T19:18:33.974Z,10.58
2018-12-09T19:21:02.857Z,10.57
2018-12-09T19:23:31.697Z,10.53
2018-12-09T19:26:00.695Z,10.50
2018-12-09T19:28:29.670Z,10.54
2018-12-09T19:30:58.922Z,10.60
2018-12-09T19:33:27.929Z,10.65
2018-12-09T19:35:56.794Z,10.64
2018-12-09T19:38:25.677Z,10.71
2018-12-09T19:40:54.699Z,10.73
2018-12-09T19:43:23.618Z,10.63
2018-12-09T19:45:52.478Z,10.64
2018-12-09T19:48:21.375Z,10.79
2018-12-09T19:50:50.272Z,10.83
2018-12-09T19:53:19.152Z,10.97
2018-12-09T19:55:48.246Z,11.05
2018-12-09T19:58:17.137Z,11.06
2018-12-09T20:00:46.028Z,11.00
2018-12-09T20:03:14.839Z,11.07
2018-12-09T20:05:43.729Z,11.10
2018-12-09T20:08:12.601Z,11.13
2018-12-09T20:10:41.483Z,11.19
2018-12-09T20:13:10.384Z,11.13
2018-12-09T20:15:39.242Z,11.06
2018-12-09T20:18:08.208Z,11.09
2018-12-09T20:20:37.201Z,11.01
2018-12-09T20:23:06.058Z,11.01
2018-12-09T20:25:34.946Z,11.03
2018-12-09T20:28:03.854Z,11.03
2018-12-09T20:30:32.761Z,10.96
2018-12-09T20:33:01.687Z,10.95
2018-12-09T20:35:30.683Z,10.95
2018-12-09T20:37:59.525Z,10.96
2018-12-09T20:40:28.394Z,10.98
2018-12-09T20:42:57.291Z,10.98
2018-12-09T20:45:26.194Z,11.00
2018-12-09T20:47:55.073Z,10.98
2018-12-09T20:50:23.954Z,11.00
2018-12-09T20:52:52.862Z,10.93
2018-12-09T20:55:21.780Z,10.92
2018-12-09T20:57:50.671Z,10.92
2018-12-09T21:00:19.613Z,10.92
2018-12-09T21:02:48.567Z,10.80
2018-12-09T21:05:17.426Z,10.88
2018-12-09T21:07:46.366Z,10.86
2018-12-09T21:10:15.270Z,10.76
2018-12-09T21:12:44.078Z,10.82
2018-12-09T21:15:13.324Z,10.88
2018-12-09T21:17:42.190Z,10.87
2018-12-09T21:20:11.052Z,10.90
2018-12-09T21:22:39.920Z,11.00
2018-12-09T21:25:09.423Z,10.94
2018-12-09T21:27:38.247Z,10.86
2018-12-09T21:30:07.541Z,10.91
2018-12-09T21:32:36.427Z,10.92
2018-12-09T21:35:06.025Z,10.88
2018-12-09T21:37:34.902Z,10.90
2018-12-09T21:40:04.438Z,10.93
2018-12-09T21:42:35.022Z,10.92
2018-12-09T21:45:04.299Z,10.89
2018-12-09T21:47:33.151Z,10.86
2018-12-09T21:50:02.000Z,10.80
2018-12-09T21:52:30.838Z,10.85
2018-12-09T21:54:59.734Z,10.88
2018-12-09T21:57:28.613Z,10.78
2018-12-09T21:59:57.624Z,10.79
2018-12-09T22:02:26.426Z,10.91
2018-12-09T22:04:55.278Z,10.91
2018-12-09T22:07:24.152Z,10.89
2018-12-09T22:09:53.045Z,10.77
2018-12-09T22:12:22.334Z,10.77
2018-12-09T22:14:51.586Z,10.63
2018-12-09T22:17:20.435Z,10.46
2018-12-09T22:19:49.282Z,10.53
2018-12-09T22:22:18.148Z,10.26
2018-12-09T22:24:47.031Z,10.68
2018-12-09T22:27:16.331Z,10.73
2018-12-09T22:29:45.669Z,10.73
2018-12-09T22:32:14.935Z,10.83
2018-12-09T22:34:44.076Z,10.84
2018-12-09T22:37:13.146Z,10.86
2018-12-09T22:39:42.009Z,10.87
2018-12-09T22:42:10.855Z,10.80
2018-12-09T22:44:39.702Z,10.82
2018-12-09T22:47:08.586Z,10.86
2018-12-09T22:49:37.886Z,10.84
2018-12-09T22:52:06.783Z,10.78
2018-12-09T22:54:35.643Z,10.24
2018-12-09T22:57:04.932Z,10.51
2018-12-09T22:59:33.775Z,10.76
2018-12-09T23:02:08.544Z,10.86
2018-12-09T23:04:37.794Z,10.89
2018-12-09T23:07:12.309Z,10.96
2018-12-09T23:09:41.205Z,11.00
2018-12-09T23:12:10.080Z,10.97
2018-12-09T23:14:39.399Z,10.96
2018-12-09T23:17:08.339Z,10.97
2018-12-09T23:19:37.402Z,11.06
2018-12-09T23:22:06.247Z,11.05
2018-12-09T23:24:35.091Z,11.02
2018-12-09T23:27:04.461Z,11.07
2018-12-09T23:29:33.278Z,10.99
2018-12-09T23:32:02.141Z,10.94
2018-12-09T23:34:31.001Z,11.05
2018-12-09T23:36:59.834Z,10.75
2018-12-09T23:39:28.716Z,10.91
2018-12-09T23:41:57.579Z,10.94
2018-12-09T23:44:26.418Z,10.84
2018-12-09T23:46:55.476Z,11.01
2018-12-09T23:49:24.323Z,10.94
2018-12-09T23:51:53.154Z,10.95
2018-12-09T23:54:21.975Z,11.00
2018-12-09T23:56:50.859Z,11.00
2018-12-09T23:59:19.711Z,10.99
